createdAt,value
2018-09-07T00:04:35.444Z,17.90
2018-09-07T00:09:38.305Z,17.90
2018-09-07T00:14:42.370Z,17.90
2018-09-07T00:19:44.892Z,18.00
2018-09-07T00:24:47.214Z,17.90
2018-09-07T00:29:50.585Z,17.90
2018-09-07T00:34:53.890Z,17.90
2018-09-07T00:39:57.607Z,18.00
2018-09-07T00:44:59.737Z,17.80
2018-09-07T00:50:02.337Z,17.80
2018-09-07T00:55:05.997Z,17.70
2018-09-07T01:00:09.090Z,17.70
2018-09-07T01:05:18.205Z,17.70
2018-09-07T01:10:21.183Z,17.70
2018-09-07T01:15:23.557Z,17.50
2018-09-07T01:20:26.221Z,17.50
2018-09-07T01:25:29.259Z,17.50
2018-09-07T01:30:32.698Z,17.40
2018-09-07T01:35:34.889Z,17.40
2018-09-07T01:40:37.049Z,17.50
2018-09-07T01:45:46.248Z,17.50
2018-09-07T01:50:49.465Z,17.40
2018-09-07T01:55:51.812Z,17.30
2018-09-07T02:00:54.629Z,17.40
2018-09-07T02:05:58.961Z,17.30
2018-09-07T02:11:02.525Z,17.20
2018-09-07T02:16:04.736Z,17.20
2018-09-07T02:21:08.579Z,17.10
2018-09-07T02:26:11.239Z,17.10
2018-09-07T02:31:13.647Z,17.00
2018-09-07T02:36:15.917Z,17.10
2018-09-07T02:41:18.102Z,17.10
2018-09-07T02:46:20.280Z,17.00
2018-09-07T02:51:23.317Z,17.10
2018-09-07T02:56:25.974Z,17.00
2018-09-07T03:01:28.131Z,16.90
2018-09-07T03:06:30.508Z,17.00
2018-09-07T03:11:33.506Z,17.00
2018-09-07T03:16:36.946Z,17.00
2018-09-07T03:21:39.100Z,16.90
2018-09-07T03:26:41.256Z,16.80
2018-09-07T03:31:43.414Z,16.90
2018-09-07T03:36:46.785Z,16.90
2018-09-07T03:41:50.433Z,16.90
2018-09-07T03:46:52.585Z,16.80
2018-09-07T03:51:55.744Z,16.80
2018-09-07T03:56:58.996Z,16.80
2018-09-07T04:02:02.819Z,16.60
2018-09-07T04:07:07.802Z,16.60
2018-09-07T04:12:10.033Z,16.60
2018-09-07T04:17:12.811Z,16.70
2018-09-07T04:22:15.098Z,16.70
2018-09-07T04:27:17.237Z,16.60
2018-09-07T04:32:19.414Z,16.60
2018-09-07T04:37:22.466Z,16.60
2018-09-07T04:42:24.766Z,16.50
2018-09-07T04:47:26.936Z,16.60
2018-09-07T04:52:29.126Z,16.60
2018-09-07T04:57:31.317Z,16.60
2018-09-07T05:02:34.394Z,16.50
2018-09-07T05:07:36.838Z,16.60
2018-09-07T05:12:39.006Z,16.60
2018-09-07T05:17:41.184Z,16.50
2018-09-07T05:22:43.329Z,16.60
2018-09-07T05:27:45.479Z,16.50
2018-09-07T05:32:47.625Z,16.60
2018-09-07T05:37:50.799Z,16.70
2018-09-07T05:42:53.933Z,16.70
2018-09-07T05:47:56.102Z,16.70
2018-09-07T05:52:58.290Z,16.90
2018-09-07T05:58:01.122Z,16.90
2018-09-07T06:03:03.566Z,16.90
2018-09-07T06:08:05.978Z,16.90
2018-09-07T06:13:08.143Z,17.20
2018-09-07T06:18:10.316Z,17.40
2018-09-07T06:23:12.465Z,17.10
2018-09-07T06:28:14.659Z,17.30
2018-09-07T06:33:16.945Z,17.50
2018-09-07T06:38:19.074Z,18.00
2018-09-07T06:43:21.344Z,18.20
2018-09-07T06:48:23.518Z,18.50
2018-09-07T06:53:25.653Z,18.70
2018-09-07T06:58:27.794Z,18.30
2018-09-07T07:03:29.966Z,18.00
2018-09-07T07:08:32.142Z,18.10
2018-09-07T07:13:34.766Z,18.50
2018-09-07T07:18:37.661Z,18.50
2018-09-07T07:23:39.903Z,18.70
2018-09-07T07:28:42.122Z,18.50
2018-09-07T07:33:45.823Z,18.40
2018-09-07T07:38:48.723Z,18.40
2018-09-07T07:43:51.642Z,18.30
2018-09-07T07:48:54.964Z,18.70
2018-09-07T07:53:57.122Z,19.00
2018-09-07T07:58:59.309Z,19.30
2018-09-07T08:04:01.489Z,19.50
2018-09-07T08:09:05.587Z,19.50
2018-09-07T08:14:08.317Z,19.30
2018-09-07T08:19:10.736Z,19.30
2018-09-07T08:24:12.902Z,19.50
2018-09-07T08:29:15.057Z,19.50
2018-09-07T08:34:17.666Z,19.70
2018-09-07T08:39:20.115Z,20.70
2018-09-07T08:44:22.304Z,21.80
2018-09-07T08:49:24.456Z,20.80
2018-09-07T08:54:26.867Z,20.70
2018-09-07T08:59:30.315Z,20.60
2018-09-07T09:04:32.485Z,20.80
2018-09-07T09:09:34.642Z,20.60
2018-09-07T09:14:36.944Z,21.00
2018-09-07T09:19:39.929Z,21.30
2018-09-07T09:24:42.150Z,20.70
2018-09-07T09:29:46.085Z,20.10
2018-09-07T09:34:48.932Z,20.20
2018-09-07T09:39:52.695Z,20.20
2018-09-07T09:45:01.786Z,20.00
2018-09-07T09:50:06.238Z,19.90
2018-09-07T09:55:10.597Z,19.90
2018-09-07T10:00:19.610Z,20.00
2018-09-07T10:05:21.751Z,20.00
2018-09-07T10:10:25.790Z,20.20
2018-09-07T10:15:29.894Z,20.30
2018-09-07T10:20:32.149Z,20.50
2018-09-07T10:25:34.396Z,21.50
2018-09-07T10:30:36.710Z,22.00
2018-09-07T10:35:38.855Z,22.30
2018-09-07T10:40:41.012Z,21.90
2018-09-07T10:45:43.362Z,21.20
2018-09-07T10:50:46.002Z,21.10
2018-09-07T10:55:48.901Z,21.40
2018-09-07T11:00:52.252Z,21.40
2018-09-07T11:05:55.989Z,21.50
2018-09-07T11:10:58.831Z,21.60
2018-09-07T11:16:01.140Z,22.50
2018-09-07T11:21:03.387Z,22.60
2018-09-07T11:26:05.701Z,22.80
2018-09-07T11:31:07.897Z,22.60
2018-09-07T11:36:10.615Z,23.00
2018-09-07T11:41:13.142Z,22.80
2018-09-07T11:46:16.429Z,22.80
2018-09-07T11:51:18.594Z,23.10
2018-09-07T11:56:20.736Z,23.20
2018-09-07T12:01:22.904Z,23.10
2018-09-07T12:06:25.118Z,22.80
2018-09-07T12:11:27.477Z,23.00
2018-09-07T12:16:29.990Z,22.40
2018-09-07T12:21:32.240Z,22.20
2018-09-07T12:26:34.457Z,22.20
2018-09-07T12:31:36.910Z,22.10
2018-09-07T12:36:39.226Z,22.00
2018-09-07T12:41:42.446Z,22.10
2018-09-07T12:46:44.663Z,21.70
2018-09-07T12:51:47.466Z,21.60
2018-09-07T12:56:50.106Z,21.50
2018-09-07T13:01:52.401Z,21.70
2018-09-07T13:06:54.790Z,21.70
2018-09-07T13:11:57.042Z,21.70
2018-09-07T13:16:59.285Z,21.90
2018-09-07T13:22:01.572Z,21.90
2018-09-07T13:27:03.767Z,21.80
2018-09-07T13:32:06.177Z,21.60
2018-09-07T13:37:08.687Z,21.50
2018-09-07T13:42:10.865Z,21.70
2018-09-07T13:47:13.042Z,21.50
2018-09-07T13:52:15.226Z,21.20
2018-09-07T13:57:18.141Z,21.10
2018-09-07T14:02:21.006Z,21.00
2018-09-07T14:07:23.390Z,21.20
2018-09-07T14:12:25.972Z,21.20
2018-09-07T14:17:28.309Z,21.20
2018-09-07T14:22:30.497Z,21.40
2018-09-07T14:27:33.230Z,21.40
2018-09-07T14:32:35.412Z,21.90
2018-09-07T14:37:37.574Z,21.60
2018-09-07T14:42:39.726Z,21.30
2018-09-07T14:47:42.074Z,21.30
2018-09-07T14:52:44.814Z,21.20
2018-09-07T14:57:48.218Z,20.90
2018-09-07T15:02:51.385Z,20.90
2018-09-07T15:07:55.397Z,21.00
2018-09-07T15:12:59.261Z,21.40
2018-09-07T15:18:02.657Z,21.50
2018-09-07T15:23:04.833Z,21.60
2018-09-07T15:28:06.985Z,21.10
2018-09-07T15:33:09.130Z,20.90
2018-09-07T15:38:11.284Z,20.60
2018-09-07T15:43:13.530Z,20.50
2018-09-07T15:48:15.694Z,20.30
2018-09-07T15:53:19.504Z,20.30
2018-09-07T15:58:21.663Z,20.20
2018-09-07T16:03:23.796Z,20.00
2018-09-07T16:08:25.953Z,19.80
2018-09-07T16:13:29.030Z,19.70
2018-09-07T16:18:31.397Z,19.50
2018-09-07T16:23:33.533Z,19.30
2018-09-07T16:28:35.673Z,18.90
2018-09-07T16:33:38.081Z,18.80
2018-09-07T16:38:40.225Z,19.00
2018-09-07T16:43:43.273Z,19.10
2018-09-07T16:48:53.946Z,19.10
2018-09-07T16:53:56.154Z,18.90
2018-09-07T16:58:59.909Z,18.90
2018-09-07T17:04:03.264Z,18.80
2018-09-07T17:09:05.790Z,18.80
2018-09-07T17:14:09.375Z,18.90
2018-09-07T17:19:12.063Z,18.80
2018-09-07T17:24:14.489Z,18.80
2018-09-07T17:29:16.631Z,18.80
2018-09-07T17:34:20.177Z,18.70
2018-09-07T17:39:22.317Z,18.80
2018-09-07T17:44:24.489Z,18.80
2018-09-07T17:49:27.266Z,18.80
2018-09-07T17:54:29.739Z,18.80
2018-09-07T17:59:33.297Z,18.70
2018-09-07T18:04:37.546Z,18.60
2018-09-07T18:09:39.758Z,18.40
2018-09-07T18:14:41.997Z,18.30
2018-09-07T18:19:44.290Z,18.10
2018-09-07T18:24:47.020Z,18.10
2018-09-07T18:29:49.289Z,18.10
2018-09-07T18:34:51.428Z,18.00
2018-09-07T18:39:55.197Z,18.00
2018-09-07T18:44:58.449Z,17.90
2018-09-07T18:50:01.509Z,17.80
2018-09-07T18:55:03.829Z,18.00
2018-09-07T19:00:06.033Z,17.70
2018-09-07T19:05:08.206Z,17.70
2018-09-07T19:10:11.771Z,17.60
2018-09-07T19:15:16.865Z,17.60
2018-09-07T19:20:19.536Z,17.60
2018-09-07T19:25:21.713Z,17.70
2018-09-07T19:30:23.890Z,17.60
2018-09-07T19:35:26.173Z,17.60
2018-09-07T19:40:29.709Z,17.50
2018-09-07T19:45:31.877Z,17.50
2018-09-07T19:50:34.038Z,17.50
2018-09-07T19:55:38.285Z,17.50
2018-09-07T20:00:41.332Z,17.40
2018-09-07T20:05:43.417Z,17.40
2018-09-07T20:10:47.520Z,17.40
2018-09-07T20:15:50.802Z,17.30
2018-09-07T20:20:53.630Z,17.30
2018-09-07T20:25:55.841Z,17.20
2018-09-07T20:30:58.006Z,17.20
2018-09-07T20:36:00.154Z,17.30
2018-09-07T20:41:03.101Z,17.10
2018-09-07T20:46:05.538Z,17.10
2018-09-07T20:51:09.366Z,17.00
2018-09-07T20:56:11.526Z,17.10
2018-09-07T21:01:13.664Z,17.00
2018-09-07T21:06:16.177Z,17.00
2018-09-07T21:11:18.486Z,17.10
2018-09-07T21:16:21.853Z,17.00
2018-09-07T21:21:25.127Z,17.00
2018-09-07T21:26:27.498Z,16.80
2018-09-07T21:31:29.725Z,16.70
2018-09-07T21:36:32.449Z,16.70
2018-09-07T21:41:36.069Z,16.70
2018-09-07T21:46:39.386Z,16.70
2018-09-07T21:51:41.590Z,16.50
2018-09-07T21:56:43.745Z,16.50
2018-09-07T22:01:46.004Z,16.50
2018-09-07T22:06:55.174Z,16.40
2018-09-07T22:11:57.436Z,16.40
2018-09-07T22:16:59.632Z,16.50
2018-09-07T22:22:01.797Z,16.30
2018-09-07T22:27:04.257Z,16.40
2018-09-07T22:32:06.741Z,16.30
2018-09-07T22:37:08.981Z,16.10
2018-09-07T22:42:11.148Z,16.20
2018-09-07T22:47:13.744Z,16.20
2018-09-07T22:52:16.185Z,16.10
2018-09-07T22:57:18.352Z,16.10
2018-09-07T23:02:20.669Z,16.10
2018-09-07T23:07:22.821Z,16.00
2018-09-07T23:12:24.961Z,15.80
2018-09-07T23:17:27.651Z,15.70
2018-09-07T23:22:29.841Z,15.70
2018-09-07T23:27:31.993Z,15.90
2018-09-07T23:32:34.209Z,15.80
2018-09-07T23:37:36.888Z,15.70
2018-09-07T23:42:40.946Z,15.70
2018-09-07T23:47:45.374Z,15.60
2018-09-07T23:52:47.513Z,15.60
2018-09-07T23:57:51.703Z,15.70
